sensor_id;sensor_type;location;lat;lon;timestamp;P1;durP1;ratioP1;P2;durP2;ratioP2
74375;SDS011;62812;55.188;61.302;2023-06-26T00:00:06;12.70;;;6.63;;
74375;SDS011;62812;55.188;61.302;2023-06-26T00:02:35;17.75;;;8.20;;
74375;SDS011;62812;55.188;61.302;2023-06-26T00:05:02;21.75;;;9.68;;
74375;SDS011;62812;55.188;61.302;2023-06-26T00:07:30;24.70;;;10.82;;
74375;SDS011;62812;55.188;61.302;2023-06-26T00:09:59;32.03;;;15.88;;
74375;SDS011;62812;55.188;61.302;2023-06-26T00:12:26;43.67;;;18.73;;
74375;SDS011;62812;55.188;61.302;2023-06-26T00:14:53;33.05;;;17.35;;
74375;SDS011;62812;55.188;61.302;2023-06-26T00:17:20;38.30;;;15.95;;
74375;SDS011;62812;55.188;61.302;2023-06-26T00:22:17;25.17;;;9.80;;
74375;SDS011;62812;55.188;61.302;2023-06-26T00:24:44;35.90;;;11.35;;
74375;SDS011;62812;55.188;61.302;2023-06-26T00:27:11;38.38;;;12.75;;
74375;SDS011;62812;55.188;61.302;2023-06-26T00:29:38;39.50;;;14.70;;
74375;SDS011;62812;55.188;61.302;2023-06-26T00:32:05;44.90;;;15.77;;
74375;SDS011;62812;55.188;61.302;2023-06-26T00:34:32;50.97;;;16.80;;
74375;SDS011;62812;55.188;61.302;2023-06-26T00:37:00;57.00;;;19.80;;
74375;SDS011;62812;55.188;61.302;2023-06-26T00:39:27;60.20;;;21.35;;
74375;SDS011;62812;55.188;61.302;2023-06-26T00:41:53;71.43;;;24.25;;
74375;SDS011;62812;55.188;61.302;2023-06-26T00:44:20;79.93;;;28.80;;
74375;SDS011;62812;55.188;61.302;2023-06-26T00:46:47;70.75;;;26.65;;
74375;SDS011;62812;55.188;61.302;2023-06-26T00:49:14;64.97;;;25.10;;
74375;SDS011;62812;55.188;61.302;2023-06-26T00:51:41;59.30;;;21.35;;
74375;SDS011;62812;55.188;61.302;2023-06-26T00:54:10;46.42;;;16.92;;
74375;SDS011;62812;55.188;61.302;2023-06-26T00:56:37;26.23;;;10.52;;
74375;SDS011;62812;55.188;61.302;2023-06-26T00:59:04;24.92;;;8.70;;
74375;SDS011;62812;55.188;61.302;2023-06-26T01:01:31;24.60;;;8.93;;
74375;SDS011;62812;55.188;61.302;2023-06-26T01:03:57;20.83;;;7.10;;
74375;SDS011;62812;55.188;61.302;2023-06-26T01:06:25;25.92;;;7.88;;
74375;SDS011;62812;55.188;61.302;2023-06-26T01:08:57;18.40;;;7.68;;
74375;SDS011;62812;55.188;61.302;2023-06-26T01:11:26;24.17;;;8.30;;
74375;SDS011;62812;55.188;61.302;2023-06-26T01:13:53;29.75;;;9.07;;
74375;SDS011;62812;55.188;61.302;2023-06-26T01:16:22;28.58;;;12.63;;
74375;SDS011;62812;55.188;61.302;2023-06-26T01:18:50;30.65;;;13.68;;
74375;SDS011;62812;55.188;61.302;2023-06-26T01:21:20;40.85;;;18.20;;
74375;SDS011;62812;55.188;61.302;2023-06-26T01:23:49;45.65;;;21.55;;
74375;SDS011;62812;55.188;61.302;2023-06-26T01:26:27;37.80;;;19.92;;
74375;SDS011;62812;55.188;61.302;2023-06-26T01:28:56;37.67;;;19.13;;
74375;SDS011;62812;55.188;61.302;2023-06-26T01:31:24;35.92;;;16.35;;
74375;SDS011;62812;55.188;61.302;2023-06-26T01:33:52;20.70;;;10.45;;
74375;SDS011;62812;55.188;61.302;2023-06-26T01:36:19;24.63;;;10.98;;
74375;SDS011;62812;55.188;61.302;2023-06-26T01:38:45;15.38;;;8.80;;
74375;SDS011;62812;55.188;61.302;2023-06-26T01:41:12;17.95;;;8.63;;
74375;SDS011;62812;55.188;61.302;2023-06-26T01:43:43;13.98;;;7.65;;
74375;SDS011;62812;55.188;61.302;2023-06-26T01:46:22;13.77;;;7.05;;
74375;SDS011;62812;55.188;61.302;2023-06-26T01:48:54;12.40;;;7.13;;
74375;SDS011;62812;55.188;61.302;2023-06-26T01:51:27;13.68;;;6.13;;
74375;SDS011;62812;55.188;61.302;2023-06-26T01:53:56;10.68;;;5.55;;
74375;SDS011;62812;55.188;61.302;2023-06-26T01:56:26;9.88;;;5.68;;
74375;SDS011;62812;55.188;61.302;2023-06-26T01:58:56;9.55;;;5.28;;
74375;SDS011;62812;55.188;61.302;2023-06-26T02:01:23;10.77;;;5.47;;
74375;SDS011;62812;55.188;61.302;2023-06-26T02:03:50;9.05;;;5.50;;
74375;SDS011;62812;55.188;61.302;2023-06-26T02:06:17;10.57;;;5.60;;
74375;SDS011;62812;55.188;61.302;2023-06-26T02:08:43;10.60;;;5.38;;
74375;SDS011;62812;55.188;61.302;2023-06-26T02:11:10;10.63;;;5.03;;
74375;SDS011;62812;55.188;61.302;2023-06-26T02:13:37;10.55;;;5.35;;
74375;SDS011;62812;55.188;61.302;2023-06-26T02:16:05;10.35;;;6.03;;
74375;SDS011;62812;55.188;61.302;2023-06-26T02:18:31;8.82;;;5.00;;
74375;SDS011;62812;55.188;61.302;2023-06-26T02:20:58;7.95;;;5.05;;
74375;SDS011;62812;55.188;61.302;2023-06-26T02:23:25;9.80;;;4.65;;
74375;SDS011;62812;55.188;61.302;2023-06-26T02:25:52;8.85;;;5.47;;
74375;SDS011;62812;55.188;61.302;2023-06-26T02:28:19;8.35;;;4.80;;
74375;SDS011;62812;55.188;61.302;2023-06-26T02:30:46;10.18;;;4.18;;
74375;SDS011;62812;55.188;61.302;2023-06-26T02:33:14;8.13;;;5.00;;
74375;SDS011;62812;55.188;61.302;2023-06-26T02:35:40;8.00;;;4.57;;
74375;SDS011;62812;55.188;61.302;2023-06-26T02:38:07;7.15;;;4.38;;
74375;SDS011;62812;55.188;61.302;2023-06-26T02:40:37;8.45;;;4.72;;
74375;SDS011;62812;55.188;61.302;2023-06-26T02:43:03;7.68;;;4.18;;
74375;SDS011;62812;55.188;61.302;2023-06-26T02:45:30;6.95;;;3.95;;
74375;SDS011;62812;55.188;61.302;2023-06-26T02:47:56;6.80;;;4.28;;
74375;SDS011;62812;55.188;61.302;2023-06-26T02:50:25;9.65;;;4.88;;
74375;SDS011;62812;55.188;61.302;2023-06-26T02:52:51;9.55;;;5.13;;
74375;SDS011;62812;55.188;61.302;2023-06-26T02:55:20;7.72;;;3.67;;
74375;SDS011;62812;55.188;61.302;2023-06-26T02:57:47;8.70;;;5.00;;
74375;SDS011;62812;55.188;61.302;2023-06-26T03:00:14;7.47;;;4.40;;
74375;SDS011;62812;55.188;61.302;2023-06-26T03:02:41;11.88;;;5.43;;
74375;SDS011;62812;55.188;61.302;2023-06-26T03:05:09;8.65;;;5.18;;
74375;SDS011;62812;55.188;61.302;2023-06-26T03:07:37;8.32;;;4.93;;
74375;SDS011;62812;55.188;61.302;2023-06-26T03:10:07;9.02;;;4.90;;
74375;SDS011;62812;55.188;61.302;2023-06-26T03:12:34;8.55;;;5.07;;
74375;SDS011;62812;55.188;61.302;2023-06-26T03:15:05;7.75;;;4.32;;
74375;SDS011;62812;55.188;61.302;2023-06-26T03:17:32;9.13;;;4.88;;
74375;SDS011;62812;55.188;61.302;2023-06-26T03:20:04;9.55;;;5.68;;
74375;SDS011;62812;55.188;61.302;2023-06-26T03:22:40;7.85;;;4.60;;
74375;SDS011;62812;55.188;61.302;2023-06-26T03:25:07;9.80;;;4.90;;
74375;SDS011;62812;55.188;61.302;2023-06-26T03:27:37;7.15;;;4.07;;
74375;SDS011;62812;55.188;61.302;2023-06-26T03:30:04;9.20;;;5.32;;
74375;SDS011;62812;55.188;61.302;2023-06-26T03:32:34;8.27;;;4.88;;
74375;SDS011;62812;55.188;61.302;2023-06-26T03:35:04;6.07;;;3.28;;
74375;SDS011;62812;55.188;61.302;2023-06-26T03:37:35;7.05;;;4.00;;
74375;SDS011;62812;55.188;61.302;2023-06-26T03:40:03;8.07;;;4.38;;
74375;SDS011;62812;55.188;61.302;2023-06-26T03:42:30;7.85;;;4.32;;
74375;SDS011;62812;55.188;61.302;2023-06-26T03:44:57;7.72;;;4.50;;
74375;SDS011;62812;55.188;61.302;2023-06-26T03:47:24;8.27;;;4.60;;
74375;SDS011;62812;55.188;61.302;2023-06-26T03:49:53;7.18;;;4.47;;
74375;SDS011;62812;55.188;61.302;2023-06-26T03:52:25;6.13;;;3.63;;
74375;SDS011;62812;55.188;61.302;2023-06-26T03:54:52;7.25;;;4.22;;
74375;SDS011;62812;55.188;61.302;2023-06-26T04:00:49;6.13;;;3.25;;
74375;SDS011;62812;55.188;61.302;2023-06-26T04:16:06;9.27;;;4.47;;
74375;SDS011;62812;55.188;61.302;2023-06-26T04:18:37;7.18;;;4.45;;
74375;SDS011;62812;55.188;61.302;2023-06-26T04:21:05;8.20;;;4.80;;
74375;SDS011;62812;55.188;61.302;2023-06-26T04:23:33;7.97;;;4.40;;
74375;SDS011;62812;55.188;61.302;2023-06-26T04:26:10;6.40;;;3.92;;
74375;SDS011;62812;55.188;61.302;2023-06-26T04:28:40;6.60;;;3.90;;
74375;SDS011;62812;55.188;61.302;2023-06-26T04:31:09;6.05;;;3.63;;
74375;SDS011;62812;55.188;61.302;2023-06-26T04:33:36;6.00;;;3.22;;
74375;SDS011;62812;55.188;61.302;2023-06-26T04:36:03;5.35;;;3.10;;
74375;SDS011;62812;55.188;61.302;2023-06-26T04:38:30;5.70;;;3.35;;
74375;SDS011;62812;55.188;61.302;2023-06-26T04:43:36;4.78;;;2.42;;
74375;SDS011;62812;55.188;61.302;2023-06-26T04:49:51;5.50;;;2.67;;
74375;SDS011;62812;55.188;61.302;2023-06-26T04:52:22;5.53;;;3.05;;
74375;SDS011;62812;55.188;61.302;2023-06-26T04:54:48;5.88;;;2.65;;
74375;SDS011;62812;55.188;61.302;2023-06-26T04:57:29;8.35;;;3.28;;
74375;SDS011;62812;55.188;61.302;2023-06-26T05:00:02;5.72;;;3.25;;
74375;SDS011;62812;55.188;61.302;2023-06-26T05:02:43;6.47;;;3.67;;
74375;SDS011;62812;55.188;61.302;2023-06-26T05:05:16;6.50;;;3.35;;
74375;SDS011;62812;55.188;61.302;2023-06-26T05:07:43;5.38;;;2.38;;
74375;SDS011;62812;55.188;61.302;2023-06-26T05:10:10;5.13;;;2.58;;
74375;SDS011;62812;55.188;61.302;2023-06-26T05:12:37;5.88;;;2.78;;
74375;SDS011;62812;55.188;61.302;2023-06-26T05:15:04;5.10;;;2.60;;
74375;SDS011;62812;55.188;61.302;2023-06-26T05:17:32;6.00;;;3.03;;
74375;SDS011;62812;55.188;61.302;2023-06-26T05:20:00;6.45;;;3.45;;
74375;SDS011;62812;55.188;61.302;2023-06-26T05:22:36;5.75;;;2.83;;
74375;SDS011;62812;55.188;61.302;2023-06-26T05:25:05;6.32;;;3.30;;
74375;SDS011;62812;55.188;61.302;2023-06-26T05:27:35;8.32;;;3.30;;
74375;SDS011;62812;55.188;61.302;2023-06-26T05:32:51;7.35;;;3.65;;
74375;SDS011;62812;55.188;61.302;2023-06-26T05:35:34;6.85;;;3.03;;
74375;SDS011;62812;55.188;61.302;2023-06-26T05:41:27;7.13;;;3.75;;
74375;SDS011;62812;55.188;61.302;2023-06-26T05:43:54;7.05;;;4.13;;
74375;SDS011;62812;55.188;61.302;2023-06-26T05:46:43;7.22;;;3.85;;
74375;SDS011;62812;55.188;61.302;2023-06-26T05:49:18;6.57;;;3.97;;
74375;SDS011;62812;55.188;61.302;2023-06-26T05:55:59;8.80;;;4.78;;
74375;SDS011;62812;55.188;61.302;2023-06-26T06:11:14;8.70;;;4.05;;
74375;SDS011;62812;55.188;61.302;2023-06-26T06:13:42;7.32;;;4.70;;
74375;SDS011;62812;55.188;61.302;2023-06-26T06:16:09;7.47;;;4.38;;
74375;SDS011;62812;55.188;61.302;2023-06-26T06:18:37;7.50;;;4.72;;
74375;SDS011;62812;55.188;61.302;2023-06-26T06:21:06;7.68;;;4.82;;
74375;SDS011;62812;55.188;61.302;2023-06-26T06:23:33;8.63;;;5.20;;
74375;SDS011;62812;55.188;61.302;2023-06-26T06:26:00;7.88;;;4.45;;
74375;SDS011;62812;55.188;61.302;2023-06-26T06:28:32;8.55;;;5.00;;
74375;SDS011;62812;55.188;61.302;2023-06-26T06:31:05;7.25;;;4.25;;
74375;SDS011;62812;55.188;61.302;2023-06-26T06:33:33;8.68;;;4.40;;
74375;SDS011;62812;55.188;61.302;2023-06-26T06:39:03;8.68;;;5.22;;
74375;SDS011;62812;55.188;61.302;2023-06-26T06:41:31;7.28;;;4.32;;
74375;SDS011;62812;55.188;61.302;2023-06-26T06:47:01;6.78;;;3.53;;
74375;SDS011;62812;55.188;61.302;2023-06-26T06:49:28;6.20;;;3.03;;
74375;SDS011;62812;55.188;61.302;2023-06-26T06:51:54;7.35;;;4.60;;
74375;SDS011;62812;55.188;61.302;2023-06-26T06:54:21;7.43;;;4.75;;
74375;SDS011;62812;55.188;61.302;2023-06-26T06:56:51;8.35;;;4.80;;
74375;SDS011;62812;55.188;61.302;2023-06-26T06:59:18;7.47;;;4.20;;
74375;SDS011;62812;55.188;61.302;2023-06-26T07:01:46;7.15;;;3.42;;
74375;SDS011;62812;55.188;61.302;2023-06-26T07:04:14;7.30;;;4.20;;
74375;SDS011;62812;55.188;61.302;2023-06-26T07:06:40;10.73;;;4.30;;
74375;SDS011;62812;55.188;61.302;2023-06-26T07:09:07;8.30;;;4.45;;
74375;SDS011;62812;55.188;61.302;2023-06-26T07:11:36;7.72;;;4.50;;
74375;SDS011;62812;55.188;61.302;2023-06-26T07:14:04;7.53;;;4.25;;
74375;SDS011;62812;55.188;61.302;2023-06-26T07:16:30;8.55;;;4.50;;
74375;SDS011;62812;55.188;61.302;2023-06-26T07:18:57;7.25;;;4.30;;
74375;SDS011;62812;55.188;61.302;2023-06-26T07:21:28;7.47;;;3.90;;
74375;SDS011;62812;55.188;61.302;2023-06-26T07:23:55;9.40;;;3.47;;
74375;SDS011;62812;55.188;61.302;2023-06-26T07:26:26;7.55;;;4.22;;
74375;SDS011;62812;55.188;61.302;2023-06-26T07:28:52;7.47;;;4.22;;
74375;SDS011;62812;55.188;61.302;2023-06-26T07:31:22;8.23;;;4.80;;
74375;SDS011;62812;55.188;61.302;2023-06-26T07:33:49;9.23;;;5.03;;
74375;SDS011;62812;55.188;61.302;2023-06-26T07:36:17;9.82;;;4.47;;
74375;SDS011;62812;55.188;61.302;2023-06-26T07:38:50;10.68;;;4.90;;
74375;SDS011;62812;55.188;61.302;2023-06-26T07:41:26;12.80;;;5.90;;
74375;SDS011;62812;55.188;61.302;2023-06-26T07:44:01;16.00;;;6.40;;
74375;SDS011;62812;55.188;61.302;2023-06-26T07:46:28;11.32;;;5.97;;
74375;SDS011;62812;55.188;61.302;2023-06-26T07:48:57;11.63;;;5.50;;
74375;SDS011;62812;55.188;61.302;2023-06-26T07:51:24;9.70;;;4.60;;
74375;SDS011;62812;55.188;61.302;2023-06-26T07:53:54;9.68;;;5.10;;
74375;SDS011;62812;55.188;61.302;2023-06-26T07:58:47;12.45;;;5.50;;
74375;SDS011;62812;55.188;61.302;2023-06-26T08:01:14;9.60;;;4.82;;
74375;SDS011;62812;55.188;61.302;2023-06-26T08:03:40;6.55;;;3.90;;
74375;SDS011;62812;55.188;61.302;2023-06-26T08:08:36;5.50;;;2.90;;
74375;SDS011;62812;55.188;61.302;2023-06-26T08:11:05;5.85;;;3.20;;
74375;SDS011;62812;55.188;61.302;2023-06-26T08:13:32;8.57;;;3.53;;
74375;SDS011;62812;55.188;61.302;2023-06-26T08:15:59;6.45;;;3.42;;
74375;SDS011;62812;55.188;61.302;2023-06-26T08:18:26;7.63;;;3.58;;
74375;SDS011;62812;55.188;61.302;2023-06-26T08:20:56;7.53;;;3.72;;
74375;SDS011;62812;55.188;61.302;2023-06-26T08:23:25;6.32;;;3.38;;
74375;SDS011;62812;55.188;61.302;2023-06-26T08:25:53;6.32;;;3.63;;
74375;SDS011;62812;55.188;61.302;2023-06-26T08:28:24;6.45;;;3.40;;
74375;SDS011;62812;55.188;61.302;2023-06-26T08:30:52;6.88;;;4.07;;
74375;SDS011;62812;55.188;61.302;2023-06-26T08:33:18;6.35;;;3.38;;
74375;SDS011;62812;55.188;61.302;2023-06-26T08:35:45;6.35;;;3.92;;
74375;SDS011;62812;55.188;61.302;2023-06-26T08:38:12;5.75;;;3.75;;
74375;SDS011;62812;55.188;61.302;2023-06-26T08:40:39;7.22;;;3.55;;
74375;SDS011;62812;55.188;61.302;2023-06-26T08:43:07;6.13;;;3.58;;
74375;SDS011;62812;55.188;61.302;2023-06-26T08:45:39;6.65;;;3.78;;
74375;SDS011;62812;55.188;61.302;2023-06-26T08:48:38;6.28;;;3.25;;
74375;SDS011;62812;55.188;61.302;2023-06-26T08:51:09;4.88;;;2.85;;
74375;SDS011;62812;55.188;61.302;2023-06-26T08:53:39;7.80;;;3.40;;
74375;SDS011;62812;55.188;61.302;2023-06-26T08:56:13;7.47;;;3.42;;
74375;SDS011;62812;55.188;61.302;2023-06-26T09:04:49;5.82;;;3.08;;
74375;SDS011;62812;55.188;61.302;2023-06-26T09:07:16;7.95;;;3.28;;
74375;SDS011;62812;55.188;61.302;2023-06-26T09:09:45;5.22;;;2.30;;
74375;SDS011;62812;55.188;61.302;2023-06-26T09:12:14;3.88;;;2.00;;
74375;SDS011;62812;55.188;61.302;2023-06-26T09:15:22;5.43;;;3.00;;
74375;SDS011;62812;55.188;61.302;2023-06-26T09:17:47;5.72;;;2.60;;
74375;SDS011;62812;55.188;61.302;2023-06-26T09:24:10;5.07;;;2.20;;
74375;SDS011;62812;55.188;61.302;2023-06-26T09:26:41;5.30;;;2.67;;
74375;SDS011;62812;55.188;61.302;2023-06-26T09:29:09;4.85;;;2.67;;
74375;SDS011;62812;55.188;61.302;2023-06-26T09:31:37;5.68;;;2.78;;
74375;SDS011;62812;55.188;61.302;2023-06-26T09:34:07;5.72;;;2.75;;
74375;SDS011;62812;55.188;61.302;2023-06-26T09:36:38;6.00;;;3.03;;
74375;SDS011;62812;55.188;61.302;2023-06-26T09:39:08;7.00;;;2.70;;
74375;SDS011;62812;55.188;61.302;2023-06-26T09:41:37;4.80;;;2.47;;
74375;SDS011;62812;55.188;61.302;2023-06-26T09:44:04;6.13;;;2.90;;
74375;SDS011;62812;55.188;61.302;2023-06-26T09:46:39;6.35;;;2.67;;
74375;SDS011;62812;55.188;61.302;2023-06-26T09:49:06;5.88;;;2.45;;
74375;SDS011;62812;55.188;61.302;2023-06-26T09:51:34;4.97;;;2.03;;
74375;SDS011;62812;55.188;61.302;2023-06-26T09:54:05;5.25;;;2.63;;
74375;SDS011;62812;55.188;61.302;2023-06-26T09:56:32;5.10;;;2.28;;
74375;SDS011;62812;55.188;61.302;2023-06-26T09:59:01;4.45;;;1.90;;
74375;SDS011;62812;55.188;61.302;2023-06-26T10:01:29;5.53;;;2.50;;
74375;SDS011;62812;55.188;61.302;2023-06-26T10:03:58;4.65;;;2.03;;
74375;SDS011;62812;55.188;61.302;2023-06-26T10:06:27;5.20;;;2.25;;
74375;SDS011;62812;55.188;61.302;2023-06-26T10:08:57;4.63;;;2.15;;
74375;SDS011;62812;55.188;61.302;2023-06-26T10:11:29;5.05;;;2.80;;
74375;SDS011;62812;55.188;61.302;2023-06-26T10:14:03;7.15;;;2.70;;
74375;SDS011;62812;55.188;61.302;2023-06-26T10:16:32;4.72;;;2.40;;
74375;SDS011;62812;55.188;61.302;2023-06-26T10:19:01;5.50;;;3.22;;
74375;SDS011;62812;55.188;61.302;2023-06-26T10:21:31;5.63;;;3.05;;
74375;SDS011;62812;55.188;61.302;2023-06-26T10:24:01;4.95;;;2.60;;
74375;SDS011;62812;55.188;61.302;2023-06-26T10:26:31;3.58;;;1.55;;
74375;SDS011;62812;55.188;61.302;2023-06-26T10:29:01;4.85;;;2.65;;
74375;SDS011;62812;55.188;61.302;2023-06-26T10:31:28;5.07;;;2.83;;
74375;SDS011;62812;55.188;61.302;2023-06-26T10:33:56;5.88;;;2.90;;
74375;SDS011;62812;55.188;61.302;2023-06-26T10:36:30;4.97;;;2.67;;
74375;SDS011;62812;55.188;61.302;2023-06-26T10:38:57;6.70;;;3.08;;
74375;SDS011;62812;55.188;61.302;2023-06-26T10:41:35;5.10;;;2.90;;
74375;SDS011;62812;55.188;61.302;2023-06-26T10:44:07;5.90;;;2.90;;
74375;SDS011;62812;55.188;61.302;2023-06-26T10:46:48;5.75;;;3.22;;
74375;SDS011;62812;55.188;61.302;2023-06-26T10:49:19;7.32;;;3.17;;
74375;SDS011;62812;55.188;61.302;2023-06-26T10:51:47;5.35;;;2.95;;
74375;SDS011;62812;55.188;61.302;2023-06-26T10:54:15;5.97;;;3.17;;
74375;SDS011;62812;55.188;61.302;2023-06-26T10:56:46;7.65;;;3.33;;
74375;SDS011;62812;55.188;61.302;2023-06-26T10:59:14;5.50;;;3.35;;
74375;SDS011;62812;55.188;61.302;2023-06-26T11:01:43;6.32;;;3.47;;
74375;SDS011;62812;55.188;61.302;2023-06-26T11:04:13;6.18;;;3.80;;
74375;SDS011;62812;55.188;61.302;2023-06-26T11:06:44;7.88;;;4.47;;
74375;SDS011;62812;55.188;61.302;2023-06-26T11:09:15;6.75;;;3.70;;
74375;SDS011;62812;55.188;61.302;2023-06-26T11:14:25;6.38;;;3.65;;
74375;SDS011;62812;55.188;61.302;2023-06-26T11:16:55;7.40;;;3.58;;
74375;SDS011;62812;55.188;61.302;2023-06-26T11:19:23;5.03;;;3.28;;
74375;SDS011;62812;55.188;61.302;2023-06-26T11:21:57;6.07;;;3.03;;
74375;SDS011;62812;55.188;61.302;2023-06-26T11:24:25;6.10;;;3.25;;
74375;SDS011;62812;55.188;61.302;2023-06-26T11:26:54;5.65;;;2.92;;
74375;SDS011;62812;55.188;61.302;2023-06-26T11:29:27;7.20;;;2.92;;
74375;SDS011;62812;55.188;61.302;2023-06-26T11:31:58;6.75;;;3.17;;
74375;SDS011;62812;55.188;61.302;2023-06-26T11:34:29;5.50;;;2.80;;
74375;SDS011;62812;55.188;61.302;2023-06-26T11:39:26;5.07;;;3.00;;
74375;SDS011;62812;55.188;61.302;2023-06-26T11:41:53;5.95;;;3.20;;
74375;SDS011;62812;55.188;61.302;2023-06-26T11:44:20;6.00;;;3.17;;
74375;SDS011;62812;55.188;61.302;2023-06-26T11:46:50;6.03;;;3.20;;
74375;SDS011;62812;55.188;61.302;2023-06-26T11:49:20;4.20;;;1.67;;
74375;SDS011;62812;55.188;61.302;2023-06-26T11:51:49;5.32;;;2.88;;
74375;SDS011;62812;55.188;61.302;2023-06-26T11:54:22;7.32;;;3.17;;
74375;SDS011;62812;55.188;61.302;2023-06-26T11:56:54;5.68;;;3.00;;
74375;SDS011;62812;55.188;61.302;2023-06-26T11:59:24;8.05;;;3.33;;
74375;SDS011;62812;55.188;61.302;2023-06-26T12:02:04;6.00;;;3.58;;
74375;SDS011;62812;55.188;61.302;2023-06-26T12:04:38;6.25;;;3.35;;
74375;SDS011;62812;55.188;61.302;2023-06-26T12:07:12;6.32;;;3.70;;
74375;SDS011;62812;55.188;61.302;2023-06-26T12:09:41;5.93;;;3.60;;
74375;SDS011;62812;55.188;61.302;2023-06-26T12:12:14;7.18;;;3.45;;
74375;SDS011;62812;55.188;61.302;2023-06-26T12:17:15;6.22;;;3.35;;
74375;SDS011;62812;55.188;61.302;2023-06-26T12:19:47;7.15;;;3.63;;
74375;SDS011;62812;55.188;61.302;2023-06-26T12:22:15;10.60;;;3.22;;
74375;SDS011;62812;55.188;61.302;2023-06-26T12:24:42;6.88;;;3.60;;
74375;SDS011;62812;55.188;61.302;2023-06-26T12:27:13;6.32;;;3.70;;
74375;SDS011;62812;55.188;61.302;2023-06-26T12:29:49;6.25;;;3.70;;
74375;SDS011;62812;55.188;61.302;2023-06-26T12:32:19;7.28;;;3.55;;
74375;SDS011;62812;55.188;61.302;2023-06-26T12:34:49;5.60;;;2.95;;
74375;SDS011;62812;55.188;61.302;2023-06-26T12:37:16;7.72;;;3.75;;
74375;SDS011;62812;55.188;61.302;2023-06-26T12:39:47;5.68;;;3.55;;
74375;SDS011;62812;55.188;61.302;2023-06-26T12:42:15;7.82;;;3.42;;
74375;SDS011;62812;55.188;61.302;2023-06-26T12:44:43;7.13;;;4.38;;
74375;SDS011;62812;55.188;61.302;2023-06-26T12:47:10;6.93;;;3.83;;
74375;SDS011;62812;55.188;61.302;2023-06-26T12:49:42;7.95;;;3.92;;
74375;SDS011;62812;55.188;61.302;2023-06-26T12:52:09;7.63;;;3.80;;
74375;SDS011;62812;55.188;61.302;2023-06-26T12:54:38;6.78;;;3.67;;
74375;SDS011;62812;55.188;61.302;2023-06-26T12:57:08;6.75;;;3.42;;
74375;SDS011;62812;55.188;61.302;2023-06-26T12:59:35;7.90;;;3.55;;
74375;SDS011;62812;55.188;61.302;2023-06-26T13:02:03;5.55;;;3.03;;
74375;SDS011;62812;55.188;61.302;2023-06-26T13:04:30;7.03;;;3.92;;
74375;SDS011;62812;55.188;61.302;2023-06-26T13:07:06;6.13;;;3.42;;
74375;SDS011;62812;55.188;61.302;2023-06-26T13:09:34;7.28;;;4.05;;
74375;SDS011;62812;55.188;61.302;2023-06-26T13:12:02;7.47;;;3.30;;
74375;SDS011;62812;55.188;61.302;2023-06-26T13:14:33;8.30;;;3.33;;
74375;SDS011;62812;55.188;61.302;2023-06-26T13:17:00;6.60;;;3.42;;
74375;SDS011;62812;55.188;61.302;2023-06-26T13:19:28;6.85;;;3.40;;
74375;SDS011;62812;55.188;61.302;2023-06-26T13:21:56;6.00;;;3.63;;
74375;SDS011;62812;55.188;61.302;2023-06-26T13:24:28;6.72;;;3.50;;
74375;SDS011;62812;55.188;61.302;2023-06-26T13:27:29;7.60;;;3.80;;
74375;SDS011;62812;55.188;61.302;2023-06-26T13:30:07;8.10;;;3.65;;
74375;SDS011;62812;55.188;61.302;2023-06-26T13:32:34;5.88;;;3.17;;
74375;SDS011;62812;55.188;61.302;2023-06-26T13:35:01;6.43;;;3.60;;
74375;SDS011;62812;55.188;61.302;2023-06-26T13:37:30;6.47;;;3.60;;
74375;SDS011;62812;55.188;61.302;2023-06-26T13:39:57;9.25;;;3.40;;
74375;SDS011;62812;55.188;61.302;2023-06-26T13:42:26;4.75;;;2.35;;
74375;SDS011;62812;55.188;61.302;2023-06-26T13:45:04;7.53;;;3.58;;
74375;SDS011;62812;55.188;61.302;2023-06-26T13:48:42;9.00;;;3.63;;
74375;SDS011;62812;55.188;61.302;2023-06-26T13:51:09;7.40;;;3.33;;
74375;SDS011;62812;55.188;61.302;2023-06-26T13:53:39;8.90;;;3.65;;
74375;SDS011;62812;55.188;61.302;2023-06-26T13:56:06;7.80;;;3.63;;
74375;SDS011;62812;55.188;61.302;2023-06-26T14:01:04;7.75;;;3.35;;
74375;SDS011;62812;55.188;61.302;2023-06-26T14:03:32;6.50;;;3.10;;
74375;SDS011;62812;55.188;61.302;2023-06-26T14:05:58;6.07;;;2.72;;
74375;SDS011;62812;55.188;61.302;2023-06-26T14:08:25;6.22;;;3.28;;
74375;SDS011;62812;55.188;61.302;2023-06-26T14:10:54;5.97;;;2.63;;
74375;SDS011;62812;55.188;61.302;2023-06-26T14:13:21;8.80;;;3.67;;
74375;SDS011;62812;55.188;61.302;2023-06-26T14:15:47;6.65;;;3.17;;
74375;SDS011;62812;55.188;61.302;2023-06-26T14:18:14;6.72;;;3.65;;
74375;SDS011;62812;55.188;61.302;2023-06-26T14:20:41;5.70;;;3.35;;
74375;SDS011;62812;55.188;61.302;2023-06-26T14:23:09;7.32;;;3.30;;
74375;SDS011;62812;55.188;61.302;2023-06-26T14:25:36;5.43;;;2.95;;
74375;SDS011;62812;55.188;61.302;2023-06-26T14:28:04;8.15;;;2.90;;
74375;SDS011;62812;55.188;61.302;2023-06-26T14:30:32;6.88;;;3.28;;
74375;SDS011;62812;55.188;61.302;2023-06-26T14:33:00;7.15;;;3.13;;
74375;SDS011;62812;55.188;61.302;2023-06-26T14:35:51;5.93;;;2.75;;
74375;SDS011;62812;55.188;61.302;2023-06-26T14:38:19;5.65;;;2.47;;
74375;SDS011;62812;55.188;61.302;2023-06-26T14:40:45;7.00;;;3.33;;
74375;SDS011;62812;55.188;61.302;2023-06-26T14:43:17;6.32;;;3.17;;
74375;SDS011;62812;55.188;61.302;2023-06-26T14:45:43;5.43;;;2.80;;
74375;SDS011;62812;55.188;61.302;2023-06-26T14:48:11;5.13;;;2.63;;
74375;SDS011;62812;55.188;61.302;2023-06-26T14:50:37;4.47;;;1.70;;
74375;SDS011;62812;55.188;61.302;2023-06-26T14:53:05;5.05;;;2.22;;
74375;SDS011;62812;55.188;61.302;2023-06-26T14:55:31;5.43;;;1.83;;
74375;SDS011;62812;55.188;61.302;2023-06-26T14:57:59;4.43;;;1.73;;
74375;SDS011;62812;55.188;61.302;2023-06-26T15:00:31;4.30;;;1.80;;
74375;SDS011;62812;55.188;61.302;2023-06-26T15:03:03;3.58;;;1.50;;
74375;SDS011;62812;55.188;61.302;2023-06-26T15:05:30;3.78;;;1.63;;
74375;SDS011;62812;55.188;61.302;2023-06-26T15:07:58;6.40;;;1.83;;
74375;SDS011;62812;55.188;61.302;2023-06-26T15:10:24;4.50;;;1.85;;
74375;SDS011;62812;55.188;61.302;2023-06-26T15:12:51;3.67;;;1.50;;
74375;SDS011;62812;55.188;61.302;2023-06-26T15:15:18;3.90;;;1.70;;
74375;SDS011;62812;55.188;61.302;2023-06-26T15:17:49;4.32;;;1.80;;
74375;SDS011;62812;55.188;61.302;2023-06-26T15:20:16;4.18;;;1.77;;
74375;SDS011;62812;55.188;61.302;2023-06-26T15:22:43;3.60;;;1.50;;
74375;SDS011;62812;55.188;61.302;2023-06-26T15:25:10;3.25;;;1.35;;
74375;SDS011;62812;55.188;61.302;2023-06-26T15:27:44;3.15;;;1.40;;
74375;SDS011;62812;55.188;61.302;2023-06-26T15:30:14;3.72;;;1.70;;
74375;SDS011;62812;55.188;61.302;2023-06-26T15:32:44;3.03;;;1.30;;
74375;SDS011;62812;55.188;61.302;2023-06-26T15:35:22;3.33;;;1.33;;
74375;SDS011;62812;55.188;61.302;2023-06-26T15:37:50;3.90;;;1.33;;
74375;SDS011;62812;55.188;61.302;2023-06-26T15:40:16;2.45;;;1.17;;
74375;SDS011;62812;55.188;61.302;2023-06-26T15:42:46;4.40;;;1.20;;
74375;SDS011;62812;55.188;61.302;2023-06-26T15:45:14;3.80;;;1.10;;
74375;SDS011;62812;55.188;61.302;2023-06-26T15:47:48;3.17;;;1.33;;
74375;SDS011;62812;55.188;61.302;2023-06-26T16:39:24;2.42;;;0.88;;
74375;SDS011;62812;55.188;61.302;2023-06-26T16:41:53;2.97;;;0.88;;
74375;SDS011;62812;55.188;61.302;2023-06-26T16:44:25;2.85;;;1.10;;
74375;SDS011;62812;55.188;61.302;2023-06-26T16:46:54;3.00;;;1.08;;
74375;SDS011;62812;55.188;61.302;2023-06-26T16:49:26;3.97;;;1.30;;
74375;SDS011;62812;55.188;61.302;2023-06-26T16:51:56;3.40;;;1.00;;